sensor_id;sensor_type;location;lat;lon;timestamp;temperature;humidity
71942;DHT22;59997;53.300;-6.260;2023-02-01T00:01:39;6.57;80.32
71942;DHT22;59997;53.300;-6.260;2023-02-01T00:04:04;6.53;80.36
71942;DHT22;59997;53.300;-6.260;2023-02-01T00:06:30;6.36;80.77
71942;DHT22;59997;53.300;-6.260;2023-02-01T00:08:55;6.41;80.47
71942;DHT22;59997;53.300;-6.260;2023-02-01T00:11:22;6.43;80.14
71942;DHT22;59997;53.300;-6.260;2023-02-01T00:13:48;6.39;80.27
71942;DHT22;59997;53.300;-6.260;2023-02-01T00:18:41;6.37;80.27
71942;DHT22;59997;53.300;-6.260;2023-02-01T00:21:08;6.41;80.22
71942;DHT22;59997;53.300;-6.260;2023-02-01T00:23:36;6.33;80.40
71942;DHT22;59997;53.300;-6.260;2023-02-01T00:26:04;6.33;80.36
71942;DHT22;59997;53.300;-6.260;2023-02-01T00:28:30;6.28;80.58
71942;DHT22;59997;53.300;-6.260;2023-02-01T00:31:01;6.26;80.70
71942;DHT22;59997;53.300;-6.260;2023-02-01T00:33:28;6.25;80.96
71942;DHT22;59997;53.300;-6.260;2023-02-01T00:36:01;6.26;80.85
71942;DHT22;59997;53.300;-6.260;2023-02-01T00:38:28;6.32;80.79
71942;DHT22;59997;53.300;-6.260;2023-02-01T00:40:54;6.29;80.75
71942;DHT22;59997;53.300;-6.260;2023-02-01T00:43:26;6.29;80.79
71942;DHT22;59997;53.300;-6.260;2023-02-01T00:45:52;6.41;80.40
71942;DHT22;59997;53.300;-6.260;2023-02-01T00:48:17;6.37;80.40
71942;DHT22;59997;53.300;-6.260;2023-02-01T00:50:43;6.57;80.03
71942;DHT22;59997;53.300;-6.260;2023-02-01T00:53:09;6.47;80.16
71942;DHT22;59997;53.300;-6.260;2023-02-01T00:55:35;6.51;80.11
71942;DHT22;59997;53.300;-6.260;2023-02-01T00:58:00;6.68;79.63
71942;DHT22;59997;53.300;-6.260;2023-02-01T01:00:26;6.65;79.42
71942;DHT22;59997;53.300;-6.260;2023-02-01T01:02:51;6.40;79.92
71942;DHT22;59997;53.300;-6.260;2023-02-01T01:05:17;6.37;80.21
71942;DHT22;59997;53.300;-6.260;2023-02-01T01:07:42;6.65;79.75
71942;DHT22;59997;53.300;-6.260;2023-02-01T01:10:08;6.70;79.70
71942;DHT22;59997;53.300;-6.260;2023-02-01T01:12:34;6.78;79.68
71942;DHT22;59997;53.300;-6.260;2023-02-01T01:14:59;6.75;79.87
71942;DHT22;59997;53.300;-6.260;2023-02-01T01:17:25;6.70;80.48
71942;DHT22;59997;53.300;-6.260;2023-02-01T01:19:50;6.75;80.72
71942;DHT22;59997;53.300;-6.260;2023-02-01T01:22:15;6.77;80.86
71942;DHT22;59997;53.300;-6.260;2023-02-01T01:24:41;6.75;81.05
71942;DHT22;59997;53.300;-6.260;2023-02-01T01:27:06;6.82;81.14
71942;DHT22;59997;53.300;-6.260;2023-02-01T01:29:32;6.71;81.40
71942;DHT22;59997;53.300;-6.260;2023-02-01T01:31:57;6.63;81.77
71942;DHT22;59997;53.300;-6.260;2023-02-01T01:34:23;6.70;81.76
71942;DHT22;59997;53.300;-6.260;2023-02-01T01:36:48;6.61;81.90
71942;DHT22;59997;53.300;-6.260;2023-02-01T01:39:14;6.37;82.46
71942;DHT22;59997;53.300;-6.260;2023-02-01T01:41:39;6.58;82.30
71942;DHT22;59997;53.300;-6.260;2023-02-01T01:44:06;6.68;82.28
71942;DHT22;59997;53.300;-6.260;2023-02-01T01:46:37;6.85;81.68
71942;DHT22;59997;53.300;-6.260;2023-02-01T01:49:32;6.91;81.32
71942;DHT22;59997;53.300;-6.260;2023-02-01T01:52:00;7.02;80.98
71942;DHT22;59997;53.300;-6.260;2023-02-01T01:54:36;7.09;80.69
71942;DHT22;59997;53.300;-6.260;2023-02-01T01:57:14;6.92;81.00
71942;DHT22;59997;53.300;-6.260;2023-02-01T01:59:43;6.85;81.24
71942;DHT22;59997;53.300;-6.260;2023-02-01T02:02:11;6.77;81.44
71942;DHT22;59997;53.300;-6.260;2023-02-01T02:04:37;6.74;81.60
71942;DHT22;59997;53.300;-6.260;2023-02-01T02:07:05;6.64;81.77
71942;DHT22;59997;53.300;-6.260;2023-02-01T02:09:32;6.55;81.99
71942;DHT22;59997;53.300;-6.260;2023-02-01T02:11:58;6.57;82.05
71942;DHT22;59997;53.300;-6.260;2023-02-01T02:14:25;6.55;81.99
71942;DHT22;59997;53.300;-6.260;2023-02-01T02:36:38;6.43;81.77
71942;DHT22;59997;53.300;-6.260;2023-02-01T02:39:10;6.46;81.73
71942;DHT22;59997;53.300;-6.260;2023-02-01T02:41:56;6.40;81.78
71942;DHT22;59997;53.300;-6.260;2023-02-01T02:44:48;6.46;81.63
71942;DHT22;59997;53.300;-6.260;2023-02-01T02:47:46;6.58;81.32
71942;DHT22;59997;53.300;-6.260;2023-02-01T02:50:33;6.64;81.18
71942;DHT22;59997;53.300;-6.260;2023-02-01T02:53:26;6.48;81.44
71942;DHT22;59997;53.300;-6.260;2023-02-01T02:56:12;6.48;81.49
71942;DHT22;59997;53.300;-6.260;2023-02-01T02:58:58;6.48;81.40
71942;DHT22;59997;53.300;-6.260;2023-02-01T03:01:43;6.61;81.14
71942;DHT22;59997;53.300;-6.260;2023-02-01T03:04:27;6.55;81.23
71942;DHT22;59997;53.300;-6.260;2023-02-01T03:06:53;6.53;81.57
71942;DHT22;59997;53.300;-6.260;2023-02-01T03:09:35;6.58;81.54
71942;DHT22;59997;53.300;-6.260;2023-02-01T03:12:05;6.63;81.61
71942;DHT22;59997;53.300;-6.260;2023-02-01T03:14:57;6.64;81.41
71942;DHT22;59997;53.300;-6.260;2023-02-01T03:17:31;6.58;81.59
71942;DHT22;59997;53.300;-6.260;2023-02-01T03:20:01;6.51;81.62
71942;DHT22;59997;53.300;-6.260;2023-02-01T03:22:29;6.58;81.57
71942;DHT22;59997;53.300;-6.260;2023-02-01T03:25:07;6.64;81.47
71942;DHT22;59997;53.300;-6.260;2023-02-01T03:27:57;6.60;81.36
71942;DHT22;59997;53.300;-6.260;2023-02-01T03:30:33;6.70;81.14
71942;DHT22;59997;53.300;-6.260;2023-02-01T03:33:01;6.60;81.51
71942;DHT22;59997;53.300;-6.260;2023-02-01T03:35:32;6.61;81.54
71942;DHT22;59997;53.300;-6.260;2023-02-01T03:46:52;6.60;81.85
71942;DHT22;59997;53.300;-6.260;2023-02-01T03:49:24;6.51;81.93
71942;DHT22;59997;53.300;-6.260;2023-02-01T03:51:50;6.55;81.78
71942;DHT22;59997;53.300;-6.260;2023-02-01T03:54:17;6.51;81.82
71942;DHT22;59997;53.300;-6.260;2023-02-01T03:56:44;6.64;81.59
71942;DHT22;59997;53.300;-6.260;2023-02-01T03:59:12;6.68;81.34
71942;DHT22;59997;53.300;-6.260;2023-02-01T04:01:39;6.68;81.33
71942;DHT22;59997;53.300;-6.260;2023-02-01T04:04:05;6.57;81.50
71942;DHT22;59997;53.300;-6.260;2023-02-01T04:06:30;6.53;81.79
71942;DHT22;59997;53.300;-6.260;2023-02-01T04:08:55;6.55;81.71
71942;DHT22;59997;53.300;-6.260;2023-02-01T04:11:21;6.70;81.24
71942;DHT22;59997;53.300;-6.260;2023-02-01T04:13:47;6.80;81.05
71942;DHT22;59997;53.300;-6.260;2023-02-01T04:16:12;6.98;80.68
71942;DHT22;59997;53.300;-6.260;2023-02-01T04:18:38;7.10;80.16
71942;DHT22;59997;53.300;-6.260;2023-02-01T04:21:04;7.19;79.79
71942;DHT22;59997;53.300;-6.260;2023-02-01T04:23:29;7.19;79.63
71942;DHT22;59997;53.300;-6.260;2023-02-01T04:26:01;7.26;79.45
71942;DHT22;59997;53.300;-6.260;2023-02-01T04:28:27;7.35;79.15
71942;DHT22;59997;53.300;-6.260;2023-02-01T04:30:52;7.28;79.28
71942;DHT22;59997;53.300;-6.260;2023-02-01T04:33:18;7.22;79.30
71942;DHT22;59997;53.300;-6.260;2023-02-01T04:35:43;7.07;79.67
71942;DHT22;59997;53.300;-6.260;2023-02-01T04:38:09;7.12;79.51
71942;DHT22;59997;53.300;-6.260;2023-02-01T04:40:34;7.12;79.52
71942;DHT22;59997;53.300;-6.260;2023-02-01T04:43:02;7.20;79.28
71942;DHT22;59997;53.300;-6.260;2023-02-01T04:45:28;7.28;78.95
71942;DHT22;59997;53.300;-6.260;2023-02-01T04:47:54;7.19;79.12
71942;DHT22;59997;53.300;-6.260;2023-02-01T04:50:19;6.98;79.69
71942;DHT22;59997;53.300;-6.260;2023-02-01T04:52:45;7.02;79.60
71942;DHT22;59997;53.300;-6.260;2023-02-01T04:55:11;6.95;79.76
71942;DHT22;59997;53.300;-6.260;2023-02-01T04:57:39;6.93;79.83
71942;DHT22;59997;53.300;-6.260;2023-02-01T05:00:06;6.91;79.72
71942;DHT22;59997;53.300;-6.260;2023-02-01T05:02:32;6.88;79.89
71942;DHT22;59997;53.300;-6.260;2023-02-01T05:04:58;6.85;79.91
71942;DHT22;59997;53.300;-6.260;2023-02-01T05:07:23;6.88;79.89
71942;DHT22;59997;53.300;-6.260;2023-02-01T05:09:49;6.93;79.69
71942;DHT22;59997;53.300;-6.260;2023-02-01T05:12:14;6.84;79.92
71942;DHT22;59997;53.300;-6.260;2023-02-01T05:14:59;6.77;80.05
71942;DHT22;59997;53.300;-6.260;2023-02-01T05:17:24;6.78;80.09
71942;DHT22;59997;53.300;-6.260;2023-02-01T05:19:50;6.93;79.78
71942;DHT22;59997;53.300;-6.260;2023-02-01T05:22:15;6.91;79.69
71942;DHT22;59997;53.300;-6.260;2023-02-01T05:24:40;6.88;79.93
71942;DHT22;59997;53.300;-6.260;2023-02-01T05:27:06;6.82;80.00
71942;DHT22;59997;53.300;-6.260;2023-02-01T05:29:31;6.81;80.13
71942;DHT22;59997;53.300;-6.260;2023-02-01T05:31:57;6.81;80.15
71942;DHT22;59997;53.300;-6.260;2023-02-01T05:34:22;6.92;80.09
71942;DHT22;59997;53.300;-6.260;2023-02-01T05:36:48;7.09;79.76
71942;DHT22;59997;53.300;-6.260;2023-02-01T05:39:13;7.27;79.22
71942;DHT22;59997;53.300;-6.260;2023-02-01T05:41:39;7.27;79.30
71942;DHT22;59997;53.300;-6.260;2023-02-01T05:44:04;7.30;79.36
71942;DHT22;59997;53.300;-6.260;2023-02-01T05:46:33;7.40;79.09
71942;DHT22;59997;53.300;-6.260;2023-02-01T05:48:58;7.30;79.35
71942;DHT22;59997;53.300;-6.260;2023-02-01T05:51:24;7.15;79.90
71942;DHT22;59997;53.300;-6.260;2023-02-01T05:53:49;7.02;80.12
71942;DHT22;59997;53.300;-6.260;2023-02-01T05:56:14;6.85;80.81
71942;DHT22;59997;53.300;-6.260;2023-02-01T05:58:40;6.85;81.09
71942;DHT22;59997;53.300;-6.260;2023-02-01T06:01:05;6.95;80.97
71942;DHT22;59997;53.300;-6.260;2023-02-01T06:03:31;6.96;80.90
71942;DHT22;59997;53.300;-6.260;2023-02-01T06:05:57;7.10;80.70
71942;DHT22;59997;53.300;-6.260;2023-02-01T06:08:22;7.06;80.79
71942;DHT22;59997;53.300;-6.260;2023-02-01T06:10:49;6.98;81.00
71942;DHT22;59997;53.300;-6.260;2023-02-01T06:13:15;6.96;81.30
71942;DHT22;59997;53.300;-6.260;2023-02-01T06:15:41;7.00;81.21
71942;DHT22;59997;53.300;-6.260;2023-02-01T06:18:09;7.02;81.20
71942;DHT22;59997;53.300;-6.260;2023-02-01T06:20:35;6.92;81.42
71942;DHT22;59997;53.300;-6.260;2023-02-01T06:23:00;6.95;81.48
71942;DHT22;59997;53.300;-6.260;2023-02-01T06:25:26;6.98;81.59
71942;DHT22;59997;53.300;-6.260;2023-02-01T06:27:51;6.96;81.69
71942;DHT22;59997;53.300;-6.260;2023-02-01T06:30:17;6.98;81.56
71942;DHT22;59997;53.300;-6.260;2023-02-01T06:32:42;6.99;81.63
71942;DHT22;59997;53.300;-6.260;2023-02-01T06:35:09;7.12;81.14
71942;DHT22;59997;53.300;-6.260;2023-02-01T06:37:41;6.98;81.44
71942;DHT22;59997;53.300;-6.260;2023-02-01T06:40:07;6.96;81.57
71942;DHT22;59997;53.300;-6.260;2023-02-01T06:42:33;7.05;81.24
71942;DHT22;59997;53.300;-6.260;2023-02-01T06:44:59;6.99;81.25
71942;DHT22;59997;53.300;-6.260;2023-02-01T06:47:24;6.96;81.44
71942;DHT22;59997;53.300;-6.260;2023-02-01T06:49:50;7.05;81.23
71942;DHT22;59997;53.300;-6.260;2023-02-01T06:52:15;7.05;81.32
71942;DHT22;59997;53.300;-6.260;2023-02-01T06:54:41;7.09;81.24
71942;DHT22;59997;53.300;-6.260;2023-02-01T06:57:06;7.19;80.99
71942;DHT22;59997;53.300;-6.260;2023-02-01T06:59:32;7.13;81.15
71942;DHT22;59997;53.300;-6.260;2023-02-01T07:01:57;6.98;81.44
71942;DHT22;59997;53.300;-6.260;2023-02-01T07:04:23;6.99;81.64
71942;DHT22;59997;53.300;-6.260;2023-02-01T07:06:48;7.12;81.51
71942;DHT22;59997;53.300;-6.260;2023-02-01T07:09:13;7.12;81.38
71942;DHT22;59997;53.300;-6.260;2023-02-01T07:11:39;7.15;81.23
71942;DHT22;59997;53.300;-6.260;2023-02-01T07:14:11;7.05;81.49
71942;DHT22;59997;53.300;-6.260;2023-02-01T07:16:37;7.00;81.60
71942;DHT22;59997;53.300;-6.260;2023-02-01T07:19:03;7.02;81.58
71942;DHT22;59997;53.300;-6.260;2023-02-01T07:21:29;7.10;81.42
71942;DHT22;59997;53.300;-6.260;2023-02-01T07:23:55;7.12;81.36
71942;DHT22;59997;53.300;-6.260;2023-02-01T07:26:20;7.06;81.69
71942;DHT22;59997;53.300;-6.260;2023-02-01T07:28:46;6.99;81.76
71942;DHT22;59997;53.300;-6.260;2023-02-01T07:31:19;7.07;81.83
71942;DHT22;59997;53.300;-6.260;2023-02-01T07:33:48;7.06;81.81
71942;DHT22;59997;53.300;-6.260;2023-02-01T07:36:17;7.06;81.90
71942;DHT22;59997;53.300;-6.260;2023-02-01T07:38:43;7.06;81.93
71942;DHT22;59997;53.300;-6.260;2023-02-01T07:41:09;7.06;81.96
71942;DHT22;59997;53.300;-6.260;2023-02-01T07:43:35;7.05;82.04
71942;DHT22;59997;53.300;-6.260;2023-02-01T07:46:02;7.10;82.01
71942;DHT22;59997;53.300;-6.260;2023-02-01T07:48:28;7.17;82.04
71942;DHT22;59997;53.300;-6.260;2023-02-01T07:51:01;7.13;82.14
71942;DHT22;59997;53.300;-6.260;2023-02-01T07:53:29;7.27;81.88
71942;DHT22;59997;53.300;-6.260;2023-02-01T07:55:55;7.31;81.86
71942;DHT22;59997;53.300;-6.260;2023-02-01T07:58:24;7.30;81.96
71942;DHT22;59997;53.300;-6.260;2023-02-01T08:00:50;7.26;82.21
71942;DHT22;59997;53.300;-6.260;2023-02-01T08:03:34;7.34;82.02
71942;DHT22;59997;53.300;-6.260;2023-02-01T08:05:59;7.35;81.85
71942;DHT22;59997;53.300;-6.260;2023-02-01T08:08:25;7.38;81.72
71942;DHT22;59997;53.300;-6.260;2023-02-01T08:10:50;7.28;81.91
71942;DHT22;59997;53.300;-6.260;2023-02-01T08:13:16;7.23;82.08
71942;DHT22;59997;53.300;-6.260;2023-02-01T08:15:41;7.34;81.95
71942;DHT22;59997;53.300;-6.260;2023-02-01T08:18:07;7.38;81.83
71942;DHT22;59997;53.300;-6.260;2023-02-01T08:20:33;7.46;81.63
71942;DHT22;59997;53.300;-6.260;2023-02-01T08:23:01;7.46;81.60
71942;DHT22;59997;53.300;-6.260;2023-02-01T08:25:27;7.40;81.80
71942;DHT22;59997;53.300;-6.260;2023-02-01T08:27:53;7.37;81.97
71942;DHT22;59997;53.300;-6.260;2023-02-01T08:30:20;7.50;81.87
71942;DHT22;59997;53.300;-6.260;2023-02-01T08:32:45;7.46;81.95
71942;DHT22;59997;53.300;-6.260;2023-02-01T08:35:11;7.54;81.82
71942;DHT22;59997;53.300;-6.260;2023-02-01T08:37:36;7.58;81.71
71942;DHT22;59997;53.300;-6.260;2023-02-01T08:40:03;7.71;81.60
71942;DHT22;59997;53.300;-6.260;2023-02-01T08:42:28;7.83;81.39
71942;DHT22;59997;53.300;-6.260;2023-02-01T08:45:13;8.02;80.93
71942;DHT22;59997;53.300;-6.260;2023-02-01T08:47:39;8.11;80.55
71942;DHT22;59997;53.300;-6.260;2023-02-01T08:50:05;8.17;80.52
71942;DHT22;59997;53.300;-6.260;2023-02-01T08:52:30;8.24;80.17
71942;DHT22;59997;53.300;-6.260;2023-02-01T08:54:56;8.26;80.05
71942;DHT22;59997;53.300;-6.260;2023-02-01T08:57:21;8.21;80.01
71942;DHT22;59997;53.300;-6.260;2023-02-01T08:59:47;8.19;80.08
71942;DHT22;59997;53.300;-6.260;2023-02-01T09:02:14;8.10;80.22
71942;DHT22;59997;53.300;-6.260;2023-02-01T09:04:40;8.03;80.51
71942;DHT22;59997;53.300;-6.260;2023-02-01T09:07:07;8.10;80.31
71942;DHT22;59997;53.300;-6.260;2023-02-01T09:09:32;8.16;80.18
71942;DHT22;59997;53.300;-6.260;2023-02-01T09:11:58;8.34;79.86
71942;DHT22;59997;53.300;-6.260;2023-02-01T09:14:23;8.52;79.41
71942;DHT22;59997;53.300;-6.260;2023-02-01T09:16:49;8.83;78.61
71942;DHT22;59997;53.300;-6.260;2023-02-01T09:19:14;8.94;78.41
71942;DHT22;59997;53.300;-6.260;2023-02-01T09:21:40;8.87;78.51
71942;DHT22;59997;53.300;-6.260;2023-02-01T09:24:05;8.80;78.75
71942;DHT22;59997;53.300;-6.260;2023-02-01T09:26:32;8.73;78.93
71942;DHT22;59997;53.300;-6.260;2023-02-01T09:28:57;8.66;79.26
71942;DHT22;59997;53.300;-6.260;2023-02-01T09:31:23;8.59;79.53
71942;DHT22;59997;53.300;-6.260;2023-02-01T09:33:48;8.51;79.73
71942;DHT22;59997;53.300;-6.260;2023-02-01T09:36:14;8.59;79.45
71942;DHT22;59997;53.300;-6.260;2023-02-01T09:38:39;8.73;79.31
71942;DHT22;59997;53.300;-6.260;2023-02-01T09:46:24;8.97;78.68
71942;DHT22;59997;53.300;-6.260;2023-02-01T09:48:56;8.96;78.78
71942;DHT22;59997;53.300;-6.260;2023-02-01T09:51:35;8.91;78.90
71942;DHT22;59997;53.300;-6.260;2023-02-01T09:54:19;8.91;78.95
71942;DHT22;59997;53.300;-6.260;2023-02-01T09:56:56;8.89;78.98
71942;DHT22;59997;53.300;-6.260;2023-02-01T09:59:38;8.97;78.95
71942;DHT22;59997;53.300;-6.260;2023-02-01T10:02:12;9.01;79.06
71942;DHT22;59997;53.300;-6.260;2023-02-01T10:04:38;9.11;78.80
71942;DHT22;59997;53.300;-6.260;2023-02-01T10:07:19;9.18;78.54
71942;DHT22;59997;53.300;-6.260;2023-02-01T10:09:54;9.30;78.45
71942;DHT22;59997;53.300;-6.260;2023-02-01T10:28:22;10.46;75.35
71942;DHT22;59997;53.300;-6.260;2023-02-01T10:30:52;10.56;74.92
71942;DHT22;59997;53.300;-6.260;2023-02-01T10:33:30;10.53;74.86
71942;DHT22;59997;53.300;-6.260;2023-02-01T10:36:13;10.43;75.83
71942;DHT22;59997;53.300;-6.260;2023-02-01T10:38:43;10.64;75.13
71942;DHT22;59997;53.300;-6.260;2023-02-01T10:41:17;10.97;74.92
71942;DHT22;59997;53.300;-6.260;2023-02-01T10:43:45;10.26;76.45
71942;DHT22;59997;53.300;-6.260;2023-02-01T10:46:11;10.38;76.41
71942;DHT22;59997;53.300;-6.260;2023-02-01T10:48:37;10.57;75.88
71942;DHT22;59997;53.300;-6.260;2023-02-01T10:51:13;10.70;75.65
71942;DHT22;59997;53.300;-6.260;2023-02-01T10:54:00;10.57;75.95
71942;DHT22;59997;53.300;-6.260;2023-02-01T10:56:28;10.70;75.45
71942;DHT22;59997;53.300;-6.260;2023-02-01T10:59:02;10.91;75.30
71942;DHT22;59997;53.300;-6.260;2023-02-01T11:01:33;10.84;74.95
71942;DHT22;59997;53.300;-6.260;2023-02-01T11:04:04;10.73;75.36
71942;DHT22;59997;53.300;-6.260;2023-02-01T11:06:38;10.74;75.71
71942;DHT22;59997;53.300;-6.260;2023-02-01T11:11:33;10.73;75.66
71942;DHT22;59997;53.300;-6.260;2023-02-01T11:14:34;11.05;75.07
71942;DHT22;59997;53.300;-6.260;2023-02-01T11:17:17;11.29;74.26
71942;DHT22;59997;53.300;-6.260;2023-02-01T11:19:45;11.63;73.64
71942;DHT22;59997;53.300;-6.260;2023-02-01T11:22:12;11.84;73.33
71942;DHT22;59997;53.300;-6.260;2023-02-01T11:24:38;11.64;73.18
71942;DHT22;59997;53.300;-6.260;2023-02-01T11:27:14;11.04;74.78
71942;DHT22;59997;53.300;-6.260;2023-02-01T11:29:43;10.46;76.15
71942;DHT22;59997;53.300;-6.260;2023-02-01T11:32:12;10.19;76.60
71942;DHT22;59997;53.300;-6.260;2023-02-01T11:34:43;10.02;77.23
71942;DHT22;59997;53.300;-6.260;2023-02-01T11:37:37;10.04;77.23
71942;DHT22;59997;53.300;-6.260;2023-02-01T11:42:54;10.25;76.94
71942;DHT22;59997;53.300;-6.260;2023-02-01T11:45:25;10.22;76.67
71942;DHT22;59997;53.300;-6.260;2023-02-01T11:47:56;10.25;76.96
71942;DHT22;59997;53.300;-6.260;2023-02-01T11:50:32;10.56;76.24
71942;DHT22;59997;53.300;-6.260;2023-02-01T11:55:53;10.97;74.55
71942;DHT22;59997;53.300;-6.260;2023-02-01T11:58:24;11.11;74.20
71942;DHT22;59997;53.300;-6.260;2023-02-01T12:01:23;11.32;73.26
71942;DHT22;59997;53.300;-6.260;2023-02-01T12:10:27;11.54;72.31
71942;DHT22;59997;53.300;-6.260;2023-02-01T12:25:57;10.81;74.15
71942;DHT22;59997;53.300;-6.260;2023-02-01T12:36:25;11.15;73.96
71942;DHT22;59997;53.300;-6.260;2023-02-01T12:42:08;10.94;74.28
71942;DHT22;59997;53.300;-6.260;2023-02-01T12:44:43;10.94;74.19
71942;DHT22;59997;53.300;-6.260;2023-02-01T12:47:56;10.85;74.45
71942;DHT22;59997;53.300;-6.260;2023-02-01T12:50:20;10.81;74.42
71942;DHT22;59997;53.300;-6.260;2023-02-01T12:52:49;10.80;74.56
71942;DHT22;59997;53.300;-6.260;2023-02-01T12:55:36;10.87;74.54
71942;DHT22;59997;53.300;-6.260;2023-02-01T12:58:13;10.91;74.58
71942;DHT22;59997;53.300;-6.260;2023-02-01T13:01:01;10.98;74.61
71942;DHT22;59997;53.300;-6.260;2023-02-01T13:03:42;11.26;74.48
71942;DHT22;59997;53.300;-6.260;2023-02-01T13:08:49;11.59;72.94
71942;DHT22;59997;53.300;-6.260;2023-02-01T13:11:30;11.36;72.60
71942;DHT22;59997;53.300;-6.260;2023-02-01T13:16:54;11.26;73.05
71942;DHT22;59997;53.300;-6.260;2023-02-01T13:22:00;11.22;73.09
71942;DHT22;59997;53.300;-6.260;2023-02-01T13:24:37;11.30;73.21
71942;DHT22;59997;53.300;-6.260;2023-02-01T13:27:04;11.35;72.19
71942;DHT22;59997;53.300;-6.260;2023-02-01T13:29:31;11.47;72.23
71942;DHT22;59997;53.300;-6.260;2023-02-01T13:38:11;11.40;71.80
71942;DHT22;59997;53.300;-6.260;2023-02-01T13:40:53;11.11;72.64
71942;DHT22;59997;53.300;-6.260;2023-02-01T13:43:29;11.10;72.56
71942;DHT22;59997;53.300;-6.260;2023-02-01T13:46:05;11.07;72.74
71942;DHT22;59997;53.300;-6.260;2023-02-01T13:48:50;11.10;73.15
71942;DHT22;59997;53.300;-6.260;2023-02-01T13:51:40;11.07;72.64
71942;DHT22;59997;53.300;-6.260;2023-02-01T13:54:07;11.08;72.83
71942;DHT22;59997;53.300;-6.260;2023-02-01T13:56:48;10.97;73.11
71942;DHT22;59997;53.300;-6.260;2023-02-01T14:23:47;10.63;75.56
71942;DHT22;59997;53.300;-6.260;2023-02-01T14:26:26;10.61;75.48
71942;DHT22;59997;53.300;-6.260;2023-02-01T14:28:57;10.66;75.80
71942;DHT22;59997;53.300;-6.260;2023-02-01T14:31:37;10.59;75.47
71942;DHT22;59997;53.300;-6.260;2023-02-01T14:34:20;10.66;75.13
71942;DHT22;59997;53.300;-6.260;2023-02-01T14:37:02;10.59;75.19
71942;DHT22;59997;53.300;-6.260;2023-02-01T14:50:27;10.71;74.49
71942;DHT22;59997;53.300;-6.260;2023-02-01T14:56:17;10.61;74.50
71942;DHT22;59997;53.300;-6.260;2023-02-01T14:59:00;10.67;74.47
71942;DHT22;59997;53.300;-6.260;2023-02-01T15:01:30;10.63;74.41
71942;DHT22;59997;53.300;-6.260;2023-02-01T15:04:15;10.57;74.49
71942;DHT22;59997;53.300;-6.260;2023-02-01T15:06:47;10.64;74.70
71942;DHT22;59997;53.300;-6.260;2023-02-01T15:09:29;10.59;74.29
71942;DHT22;59997;53.300;-6.260;2023-02-01T15:15:02;10.48;74.65
71942;DHT22;59997;53.300;-6.260;2023-02-01T15:17:30;10.48;74.55
71942;DHT22;59997;53.300;-6.260;2023-02-01T15:22:57;10.38;74.26
71942;DHT22;59997;53.300;-6.260;2023-02-01T15:25:28;10.38;74.93
71942;DHT22;59997;53.300;-6.260;2023-02-01T15:27:54;10.32;74.94
71942;DHT22;59997;53.300;-6.260;2023-02-01T15:30:31;10.35;74.96
71942;DHT22;59997;53.300;-6.260;2023-02-01T15:33:24;10.32;75.23
71942;DHT22;59997;53.300;-6.260;2023-02-01T15:36:07;10.22;75.27
71942;DHT22;59997;53.300;-6.260;2023-02-01T15:38:41;10.12;75.30
71942;DHT22;59997;53.300;-6.260;2023-02-01T15:41:15;10.11;75.46
71942;DHT22;59997;53.300;-6.260;2023-02-01T15:46:14;10.04;75.58
71942;DHT22;59997;53.300;-6.260;2023-02-01T15:48:46;10.02;75.83
71942;DHT22;59997;53.300;-6.260;2023-02-01T15:51:14;9.98;76.09
71942;DHT22;59997;53.300;-6.260;2023-02-01T15:54:00;9.93;76.26
71942;DHT22;59997;53.300;-6.260;2023-02-01T15:56:28;9.90;76.27
71942;DHT22;59997;53.300;-6.260;2023-02-01T15:58:58;9.87;76.47
71942;DHT22;59997;53.300;-6.260;2023-02-01T16:01:24;9.82;76.75
71942;DHT22;59997;53.300;-6.260;2023-02-01T16:04:03;9.80;76.95
71942;DHT22;59997;53.300;-6.260;2023-02-01T16:06:31;9.80;77.23
71942;DHT22;59997;53.300;-6.260;2023-02-01T16:09:09;9.83;76.96
71942;DHT22;59997;53.300;-6.260;2023-02-01T16:12:03;9.80;77.19
71942;DHT22;59997;53.300;-6.260;2023-02-01T16:14:29;9.76;77.43
71942;DHT22;59997;53.300;-6.260;2023-02-01T16:16:57;9.72;77.69
71942;DHT22;59997;53.300;-6.260;2023-02-01T16:19:23;9.70;77.66
71942;DHT22;59997;53.300;-6.260;2023-02-01T16:21:54;9.77;77.44
71942;DHT22;59997;53.300;-6.260;2023-02-01T16:24:20;9.76;77.47
71942;DHT22;59997;53.300;-6.260;2023-02-01T16:26:48;9.74;77.48
71942;DHT22;59997;53.300;-6.260;2023-02-01T16:29:13;9.73;77.65
71942;DHT22;59997;53.300;-6.260;2023-02-01T16:34:35;9.63;77.67
71942;DHT22;59997;53.300;-6.260;2023-02-01T16:37:02;9.63;77.76
71942;DHT22;59997;53.300;-6.260;2023-02-01T16:39:28;9.52;77.95
71942;DHT22;59997;53.300;-6.260;2023-02-01T16:41:55;9.55;78.03
71942;DHT22;59997;53.300;-6.260;2023-02-01T16:44:20;9.53;77.98
71942;DHT22;59997;53.300;-6.260;2023-02-01T16:46:46;9.55;77.86
71942;DHT22;59997;53.300;-6.260;2023-02-01T16:49:22;9.52;77.99
71942;DHT22;59997;53.300;-6.260;2023-02-01T16:51:50;9.52;77.95
71942;DHT22;59997;53.300;-6.260;2023-02-01T16:54:19;9.53;77.66
71942;DHT22;59997;53.300;-6.260;2023-02-01T16:56:45;9.48;78.01
71942;DHT22;59997;53.300;-6.260;2023-02-01T16:59:11;9.49;77.97
71942;DHT22;59997;53.300;-6.260;2023-02-01T17:01:37;9.42;78.03
71942;DHT22;59997;53.300;-6.260;2023-02-01T17:04:04;9.49;77.77
71942;DHT22;59997;53.300;-6.260;2023-02-01T17:06:29;9.45;77.79
71942;DHT22;59997;53.300;-6.260;2023-02-01T17:08:58;9.43;77.76
71942;DHT22;59997;53.300;-6.260;2023-02-01T17:11:25;9.38;77.96
71942;DHT22;59997;53.300;-6.260;2023-02-01T17:13:51;9.35;78.07
71942;DHT22;59997;53.300;-6.260;2023-02-01T17:18:42;9.41;77.69
71942;DHT22;59997;53.300;-6.260;2023-02-01T17:21:09;9.42;77.74
71942;DHT22;59997;53.300;-6.260;2023-02-01T17:23:35;9.39;77.79
71942;DHT22;59997;53.300;-6.260;2023-02-01T17:26:01;9.39;77.74
71942;DHT22;59997;53.300;-6.260;2023-02-01T17:28:29;9.39;77.78
71942;DHT22;59997;53.300;-6.260;2023-02-01T17:30:54;9.32;78.05
71942;DHT22;59997;53.300;-6.260;2023-02-01T17:33:27;9.34;77.90
71942;DHT22;59997;53.300;-6.260;2023-02-01T17:35:55;9.31;78.04
71942;DHT22;59997;53.300;-6.260;2023-02-01T17:38:22;9.34;77.89
71942;DHT22;59997;53.300;-6.260;2023-02-01T17:40:47;9.30;78.10
71942;DHT22;59997;53.300;-6.260;2023-02-01T17:43:23;9.32;77.93
71942;DHT22;59997;53.300;-6.260;2023-02-01T17:45:55;9.32;78.02
71942;DHT22;59997;53.300;-6.260;2023-02-01T17:48:22;9.30;78.13
71942;DHT22;59997;53.300;-6.260;2023-02-01T17:50:49;9.32;78.07
71942;DHT22;59997;53.300;-6.260;2023-02-01T17:53:26;9.36;77.96
71942;DHT22;59997;53.300;-6.260;2023-02-01T17:55:53;9.39;77.78
71942;DHT22;59997;53.300;-6.260;2023-02-01T17:58:19;9.38;77.81
71942;DHT22;59997;53.300;-6.260;2023-02-01T18:00:47;9.36;77.95
71942;DHT22;59997;53.300;-6.260;2023-02-01T18:03:26;9.36;77.98
71942;DHT22;59997;53.300;-6.260;2023-02-01T18:05:53;9.36;77.99
71942;DHT22;59997;53.300;-6.260;2023-02-01T18:08:26;9.36;78.00
71942;DHT22;59997;53.300;-6.260;2023-02-01T18:10:54;9.30;78.10
71942;DHT22;59997;53.300;-6.260;2023-02-01T18:13:21;9.15;78.55
71942;DHT22;59997;53.300;-6.260;2023-02-01T18:15:46;8.99;78.96
71942;DHT22;59997;53.300;-6.260;2023-02-01T18:18:12;8.84;79.40
71942;DHT22;59997;53.300;-6.260;2023-02-01T18:20:40;8.77;79.52
71942;DHT22;59997;53.300;-6.260;2023-02-01T18:23:15;8.63;79.94